Portada
METAR-TAF:

METAR-TAF

Aeropuertos :

Aeropuerto de Odense

Odense, Dinamarca

latitud: 55-29N, longitud: 010-20E, altitud: 17 m

Observación

El informe se hizo hace 8 horas y 53 minutos, a las 15:50 UTC
Viento 16 kt del suroeste
Temperatura 8°C
Humedad 93%
Presión 1009 hPa
Visibilidad 10 km o más
Escasas nubes a una altura de 1300 ft
Nubes dispersas a una altura de 1700 ft
Cielo nuboso a una altura de 2300 ft

METAR: EKOD 051550Z 22016KT 9999 FEW013 SCT017 BKN023 08/07 Q1009

Hora: 01:43 (00:43 UTC)

Pronóstico

El informe se hizo hace 12 horas y 43 minutos, a las 12:00 UTC
Pronóstico válido del 05 a las 12 UTC al 05 a las 16 UTC
Viento 15 kt del suroeste
Visibilidad 10 km o más
Cielo nuboso a una altura de 2500 ft
Temporalmente
del 05 a las 12 UTC al 05 a las 16 UTC
Viento 18 kt del suroeste con ráfagas de 28 kt
Cielo nuboso a una altura de 1400 ft

TAF: EKOD 051200Z 0512/0516 23015KT 9999 BKN025 TEMPO 0512/0516 23018G28KT BKN014

Observaciones y pronósticos meteorológicos de más de 4000 aeropuertos (mensajes METAR y TAF).

Los puntos amarillos y rojos representan las estaciones disponibles.

Ponga el ratón en el punto deseado para ver el nombre de la estación.

Haga clic para ver las observaciones y los pronósticos meteorológicos.

Para cambiar el mapa : haga clic en los botones verdes con una cruz de color negro para hacer un zoom, en el botón verde con un guión para alejar o en las flechas verdes para mapas adyacentes.


METAR-TAF: